createdAt,value
2022-11-09T00:01:49.702Z,10.18
2022-11-09T00:05:13.366Z,10.18
2022-11-09T00:08:39.411Z,10.21
2022-11-09T00:12:04.789Z,10.18
2022-11-09T00:15:26.302Z,10.16
2022-11-09T00:18:48.506Z,10.11
2022-11-09T00:22:10.056Z,10.05
2022-11-09T00:25:31.642Z,10.04
2022-11-09T00:28:58.006Z,10.05
2022-11-09T00:32:27.820Z,10.05
2022-11-09T00:35:51.765Z,10.05
2022-11-09T00:39:13.447Z,10.09
2022-11-09T00:42:34.941Z,10.12
2022-11-09T00:45:56.756Z,10.14
2022-11-09T00:49:20.595Z,10.08
2022-11-09T00:52:42.118Z,10.05
2022-11-09T00:56:11.225Z,9.97
2022-11-09T00:59:32.957Z,9.99
2022-11-09T01:02:54.475Z,9.98
2022-11-09T01:06:24.457Z,9.98
2022-11-09T01:09:45.959Z,9.95
2022-11-09T01:13:07.489Z,9.94
2022-11-09T01:16:29.073Z,9.93
2022-11-09T01:19:55.493Z,9.90
2022-11-09T01:23:18.815Z,9.91
2022-11-09T01:26:40.553Z,9.97
2022-11-09T01:30:04.541Z,9.98
2022-11-09T01:33:28.312Z,10.01
2022-11-09T01:36:52.914Z,10.02
2022-11-09T01:40:14.421Z,9.99
2022-11-09T01:43:36.049Z,9.99
2022-11-09T01:46:57.539Z,9.88
2022-11-09T01:50:30.920Z,9.80
2022-11-09T01:54:05.514Z,9.70
2022-11-09T01:57:51.484Z,9.64
2022-11-09T02:01:16.042Z,9.66
2022-11-09T02:04:44.990Z,9.71
2022-11-09T02:08:10.740Z,9.58
2022-11-09T02:11:32.418Z,9.57
2022-11-09T02:14:57.215Z,9.57
2022-11-09T02:18:22.513Z,9.58
2022-11-09T02:21:46.305Z,9.63
2022-11-09T02:25:09.591Z,9.53
2022-11-09T02:28:32.387Z,9.50
2022-11-09T02:31:59.785Z,9.54
2022-11-09T02:35:22.511Z,9.56
2022-11-09T02:38:44.127Z,9.53
2022-11-09T02:42:11.054Z,9.51
2022-11-09T02:45:32.988Z,9.56
2022-11-09T02:48:54.502Z,9.54
2022-11-09T02:52:19.076Z,9.66
2022-11-09T02:55:40.603Z,9.60
2022-11-09T02:59:03.363Z,9.54
2022-11-09T03:02:25.078Z,9.50
2022-11-09T03:05:46.567Z,9.53
2022-11-09T03:09:10.579Z,9.56
2022-11-09T03:12:32.126Z,9.61
2022-11-09T03:15:53.706Z,9.54
2022-11-09T03:19:15.533Z,9.71
2022-11-09T03:22:39.422Z,9.71
2022-11-09T03:26:00.975Z,9.64
2022-11-09T03:29:22.649Z,9.75
2022-11-09T03:32:50.424Z,9.74
2022-11-09T03:36:15.325Z,9.73
2022-11-09T03:39:36.833Z,9.73
2022-11-09T03:43:03.675Z,9.67
2022-11-09T03:46:25.178Z,9.66
2022-11-09T03:49:46.745Z,9.60
2022-11-09T03:53:11.282Z,9.67
2022-11-09T03:56:32.830Z,9.70
2022-11-09T03:59:58.809Z,9.75
2022-11-09T04:03:20.860Z,9.78
2022-11-09T04:06:42.689Z,9.67
2022-11-09T04:10:07.708Z,9.63
2022-11-09T04:13:29.222Z,9.66
2022-11-09T04:16:53.218Z,9.64
2022-11-09T04:20:14.730Z,9.66
2022-11-09T04:23:36.293Z,9.64
2022-11-09T04:27:00.298Z,9.64
2022-11-09T04:30:22.016Z,9.56
2022-11-09T04:33:43.511Z,9.53
2022-11-09T04:37:05.077Z,9.47
2022-11-09T04:40:28.586Z,9.48
2022-11-09T04:43:52.610Z,9.47
2022-11-09T04:47:16.199Z,9.43
2022-11-09T04:50:40.142Z,9.51
2022-11-09T04:54:01.700Z,9.47
2022-11-09T04:57:23.297Z,9.42
2022-11-09T05:00:44.813Z,9.43
2022-11-09T05:04:06.576Z,9.54
2022-11-09T05:07:28.114Z,9.51
2022-11-09T05:10:49.672Z,9.53
2022-11-09T05:14:11.155Z,9.61
2022-11-09T05:17:35.045Z,9.61
2022-11-09T05:21:00.440Z,9.69
2022-11-09T05:24:24.383Z,9.63
2022-11-09T05:27:45.880Z,9.63
2022-11-09T05:31:07.907Z,9.64
2022-11-09T05:34:31.762Z,9.64
2022-11-09T05:37:55.839Z,9.53
2022-11-09T05:41:17.546Z,9.47
2022-11-09T05:44:39.112Z,9.48
2022-11-09T05:48:03.692Z,9.44
2022-11-09T05:51:30.313Z,9.48
2022-11-09T05:54:54.025Z,9.43
2022-11-09T05:58:17.905Z,9.36
2022-11-09T06:01:42.158Z,9.40
2022-11-09T06:05:06.659Z,9.39
2022-11-09T06:08:32.696Z,9.36
2022-11-09T06:11:56.502Z,9.25
2022-11-09T06:15:17.983Z,9.23
2022-11-09T06:18:39.545Z,9.23
2022-11-09T06:22:01.043Z,9.20
2022-11-09T06:25:23.126Z,9.23
2022-11-09T06:28:44.700Z,9.30
2022-11-09T06:32:06.651Z,9.12
2022-11-09T06:35:28.995Z,9.20
2022-11-09T06:38:58.153Z,9.11
2022-11-09T06:42:19.685Z,9.20
2022-11-09T06:45:43.557Z,9.19
2022-11-09T06:49:05.152Z,9.18
2022-11-09T06:52:26.740Z,9.29
2022-11-09T06:55:50.940Z,9.30
2022-11-09T06:59:12.678Z,9.18
2022-11-09T07:02:34.178Z,9.20
2022-11-09T07:06:06.596Z,9.26
2022-11-09T07:09:28.129Z,9.27
2022-11-09T07:12:52.156Z,9.36
2022-11-09T07:16:17.226Z,9.46
2022-11-09T07:19:39.234Z,9.46
2022-11-09T07:23:00.753Z,9.47
2022-11-09T07:26:24.433Z,9.42
2022-11-09T07:29:48.625Z,9.42
2022-11-09T07:33:22.923Z,9.43
2022-11-09T07:36:44.708Z,9.40
2022-11-09T07:40:06.949Z,9.35
2022-11-09T07:43:29.467Z,9.42
2022-11-09T07:46:51.049Z,9.53
2022-11-09T07:50:12.629Z,9.58
2022-11-09T07:53:39.014Z,9.66
2022-11-09T07:57:02.846Z,9.70
2022-11-09T08:00:25.282Z,9.83
2022-11-09T08:03:46.781Z,9.91
2022-11-09T08:07:08.582Z,9.98
2022-11-09T08:10:31.797Z,9.97
2022-11-09T08:13:53.359Z,9.98
2022-11-09T08:17:18.395Z,10.02
2022-11-09T08:20:40.338Z,10.06
2022-11-09T08:24:05.594Z,10.14
2022-11-09T08:27:39.978Z,10.19
2022-11-09T08:31:03.982Z,10.14
2022-11-09T08:34:28.043Z,10.09
2022-11-09T08:37:52.173Z,10.16
2022-11-09T08:41:14.373Z,10.18
2022-11-09T08:44:36.066Z,10.25
2022-11-09T08:48:01.611Z,10.01
2022-11-09T08:51:23.134Z,10.45
2022-11-09T08:54:44.718Z,11.31
2022-11-09T08:58:06.282Z,11.76
2022-11-09T09:01:27.918Z,11.87
2022-11-09T09:04:49.438Z,12.13
2022-11-09T09:08:15.847Z,12.25
2022-11-09T09:11:42.615Z,12.05
2022-11-09T09:15:06.824Z,11.59
2022-11-09T09:18:31.090Z,11.34
2022-11-09T09:21:52.649Z,10.96
2022-11-09T09:25:14.197Z,10.76
2022-11-09T09:28:39.030Z,10.76
2022-11-09T09:32:05.349Z,10.74
2022-11-09T09:35:31.899Z,10.76
2022-11-09T09:38:54.366Z,10.76
2022-11-09T09:42:31.712Z,10.77
2022-11-09T09:45:54.585Z,10.83
2022-11-09T09:49:25.578Z,10.85
2022-11-09T09:53:17.731Z,10.77
2022-11-09T09:56:39.859Z,10.83
2022-11-09T10:00:05.347Z,10.84
2022-11-09T10:03:29.131Z,10.81
2022-11-09T10:07:17.610Z,10.94
2022-11-09T10:10:55.677Z,11.25
2022-11-09T10:14:41.628Z,11.46
2022-11-09T10:18:06.246Z,11.70
2022-11-09T10:22:01.077Z,11.98
2022-11-09T10:25:44.001Z,12.30
2022-11-09T10:29:34.495Z,12.32
2022-11-09T10:33:09.298Z,12.23
2022-11-09T10:36:41.630Z,12.11
2022-11-09T10:40:52.928Z,11.72
2022-11-09T10:44:17.754Z,11.39
2022-11-09T10:47:50.883Z,11.17
2022-11-09T10:51:32.610Z,11.14
2022-11-09T10:54:55.873Z,11.07
2022-11-09T10:58:54.510Z,11.00
2022-11-09T11:02:29.017Z,11.00
2022-11-09T11:05:59.064Z,11.01
2022-11-09T11:09:25.449Z,10.94
2022-11-09T11:12:51.937Z,10.98
2022-11-09T11:16:32.313Z,10.93
2022-11-09T11:20:13.792Z,11.19
2022-11-09T11:23:37.012Z,11.40
2022-11-09T11:27:31.231Z,11.73
2022-11-09T11:30:57.571Z,11.80
2022-11-09T11:34:38.391Z,11.98
2022-11-09T11:38:17.281Z,12.08
2022-11-09T11:42:02.629Z,11.69
2022-11-09T11:45:41.159Z,11.46
2022-11-09T11:49:08.705Z,11.29
2022-11-09T11:52:48.110Z,11.10
2022-11-09T11:56:34.005Z,10.96
2022-11-09T12:00:13.439Z,10.88
2022-11-09T12:03:56.086Z,10.85
2022-11-09T12:07:34.064Z,10.83
2022-11-09T12:11:26.432Z,10.88
2022-11-09T12:15:12.382Z,11.55
2022-11-09T12:18:46.422Z,12.52
2022-11-09T12:22:46.829Z,12.99
2022-11-09T12:26:17.047Z,12.73
2022-11-09T12:29:52.912Z,13.33
2022-11-09T12:33:23.620Z,13.13
2022-11-09T12:37:03.730Z,12.55
2022-11-09T12:40:39.161Z,12.14
2022-11-09T12:44:18.225Z,11.66
2022-11-09T12:47:43.877Z,11.17
2022-11-09T12:51:08.094Z,11.17
2022-11-09T12:54:29.728Z,11.10
2022-11-09T12:58:00.448Z,11.04
2022-11-09T13:01:35.123Z,11.12
2022-11-09T13:05:26.169Z,10.90
2022-11-09T13:09:15.708Z,10.87
2022-11-09T13:12:42.722Z,10.88
2022-11-09T13:16:07.252Z,10.84
2022-11-09T13:19:34.606Z,10.91
2022-11-09T13:22:56.073Z,10.90
2022-11-09T13:26:46.951Z,10.91
2022-11-09T13:30:28.818Z,10.94
2022-11-09T13:34:28.995Z,10.96
2022-11-09T13:37:56.696Z,10.97
2022-11-09T13:41:30.654Z,10.96
2022-11-09T13:44:55.472Z,10.94
2022-11-09T13:48:32.165Z,11.06
2022-11-09T13:51:54.330Z,11.04
2022-11-09T13:55:30.349Z,11.00
2022-11-09T13:58:54.186Z,11.08
2022-11-09T14:02:25.362Z,11.08
2022-11-09T14:05:50.607Z,11.11
2022-11-09T14:09:23.061Z,11.08
2022-11-09T14:13:06.344Z,11.07
2022-11-09T14:16:41.856Z,11.10
2022-11-09T14:20:30.103Z,11.62
2022-11-09T14:23:51.693Z,12.20
2022-11-09T14:27:16.971Z,12.75
2022-11-09T14:30:45.023Z,13.10
2022-11-09T14:34:07.720Z,13.13
2022-11-09T14:37:29.273Z,13.14
2022-11-09T14:40:53.444Z,13.11
2022-11-09T14:44:32.299Z,12.68
2022-11-09T14:47:57.607Z,12.27
2022-11-09T14:51:19.986Z,11.94
2022-11-09T14:54:44.790Z,11.70
2022-11-09T14:58:13.099Z,11.51
2022-11-09T15:01:34.696Z,11.42
2022-11-09T15:04:59.124Z,11.38
2022-11-09T15:08:22.588Z,11.22
2022-11-09T15:11:45.502Z,11.15
2022-11-09T15:15:21.003Z,11.31
2022-11-09T15:18:45.770Z,11.70
2022-11-09T15:22:47.495Z,12.14
2022-11-09T15:26:26.373Z,12.45
2022-11-09T15:29:47.890Z,12.51
2022-11-09T15:33:31.779Z,12.63
2022-11-09T15:36:55.015Z,12.73
2022-11-09T15:40:23.028Z,12.86
2022-11-09T15:43:46.789Z,12.88
2022-11-09T15:47:25.063Z,12.53
2022-11-09T15:50:48.782Z,12.24
2022-11-09T15:54:10.802Z,11.94
2022-11-09T15:57:32.804Z,11.69
2022-11-09T16:00:54.424Z,11.45
2022-11-09T16:04:16.001Z,11.36
2022-11-09T16:07:40.474Z,11.36
2022-11-09T16:11:08.083Z,11.31
2022-11-09T16:14:32.709Z,11.28
2022-11-09T16:17:54.327Z,11.27
2022-11-09T16:21:17.442Z,11.38
2022-11-09T16:24:39.154Z,11.66
2022-11-09T16:28:00.705Z,12.14
2022-11-09T16:31:48.144Z,12.52
2022-11-09T16:38:52.754Z,12.95
2022-11-09T16:42:15.738Z,13.06
2022-11-09T16:45:37.250Z,13.16
2022-11-09T16:49:01.647Z,12.93
2022-11-09T16:52:23.272Z,12.45
2022-11-09T16:55:44.815Z,12.07
2022-11-09T16:59:06.359Z,11.87
2022-11-09T17:02:28.159Z,11.79
2022-11-09T17:05:51.977Z,11.65
2022-11-09T17:09:13.891Z,11.63
2022-11-09T17:12:40.227Z,11.62
2022-11-09T17:16:05.585Z,11.58
2022-11-09T17:19:32.615Z,11.54
2022-11-09T17:22:54.301Z,11.52
2022-11-09T17:26:18.565Z,11.42
2022-11-09T17:29:40.476Z,11.40
2022-11-09T17:33:04.466Z,11.65
2022-11-09T17:36:56.956Z,12.14
2022-11-09T17:40:10.496Z,12.52
2022-11-09T17:43:33.914Z,12.80
2022-11-09T17:46:55.423Z,13.02
2022-11-09T17:50:21.221Z,13.16
2022-11-09T17:53:47.879Z,12.97
2022-11-09T17:57:12.046Z,12.78
2022-11-09T18:00:34.168Z,12.55
2022-11-09T18:03:58.755Z,12.24
2022-11-09T18:07:20.391Z,12.08
2022-11-09T18:10:45.534Z,11.93
2022-11-09T18:14:11.089Z,11.80
2022-11-09T18:17:37.328Z,11.70
2022-11-09T18:20:58.948Z,11.67
2022-11-09T18:24:22.818Z,11.62
2022-11-09T18:27:47.283Z,11.61
2022-11-09T18:31:15.243Z,11.61
2022-11-09T18:34:38.989Z,11.63
2022-11-09T18:38:02.791Z,12.05
2022-11-09T18:41:25.131Z,12.45
2022-11-09T18:44:49.016Z,12.78
2022-11-09T18:48:10.520Z,12.95
2022-11-09T18:51:32.062Z,13.10
2022-11-09T18:54:53.578Z,12.89
2022-11-09T18:58:18.980Z,12.72
2022-11-09T19:01:45.521Z,12.44
2022-11-09T19:05:08.492Z,12.21
2022-11-09T19:08:48.576Z,12.03
2022-11-09T19:12:14.795Z,11.84
2022-11-09T19:15:43.811Z,11.72
2022-11-09T19:19:06.539Z,11.66
2022-11-09T19:22:29.154Z,11.58
2022-11-09T19:25:50.732Z,11.52
2022-11-09T19:29:14.526Z,11.51
2022-11-09T19:32:38.381Z,11.48
2022-11-09T19:36:28.493Z,11.46
2022-11-09T19:39:45.233Z,11.43
2022-11-09T19:43:08.985Z,11.40
2022-11-09T19:46:34.841Z,11.39
2022-11-09T19:49:58.730Z,11.38
2022-11-09T19:53:20.296Z,11.35
2022-11-09T19:56:43.818Z,11.36
2022-11-09T20:00:07.402Z,11.36
2022-11-09T20:03:29.274Z,11.40
2022-11-09T20:06:53.480Z,11.35
2022-11-09T20:10:16.201Z,11.36
2022-11-09T20:13:39.436Z,11.34
2022-11-09T20:17:03.589Z,11.36
2022-11-09T20:20:27.810Z,11.38
2022-11-09T20:23:49.445Z,11.38
2022-11-09T20:27:11.013Z,11.32
2022-11-09T20:30:36.125Z,11.14
2022-11-09T20:33:57.706Z,11.19
2022-11-09T20:37:19.247Z,11.28
2022-11-09T20:40:41.154Z,11.32
2022-11-09T20:44:04.898Z,11.36
2022-11-09T20:47:57.184Z,11.36
2022-11-09T20:51:16.413Z,11.38
2022-11-09T20:54:40.257Z,11.38
2022-11-09T20:58:01.755Z,11.35
2022-11-09T21:01:26.166Z,11.39
2022-11-09T21:04:50.458Z,11.36
2022-11-09T21:08:15.106Z,11.36
2022-11-09T21:11:57.670Z,11.35
2022-11-09T21:15:21.555Z,11.38
2022-11-09T21:18:43.433Z,11.38
2022-11-09T21:22:04.950Z,11.36
2022-11-09T21:25:44.663Z,11.36
2022-11-09T21:29:27.654Z,11.38
2022-11-09T21:32:52.625Z,11.38
2022-11-09T21:36:14.697Z,11.42
2022-11-09T21:39:36.249Z,11.40
2022-11-09T21:43:00.131Z,11.38
2022-11-09T21:46:23.127Z,11.38
2022-11-09T21:49:44.667Z,11.39
2022-11-09T21:53:06.150Z,11.40
2022-11-09T21:56:30.820Z,11.39
2022-11-09T21:59:52.427Z,11.40
2022-11-09T22:03:16.437Z,11.38
2022-11-09T22:06:44.517Z,11.38
2022-11-09T22:10:10.356Z,11.39
2022-11-09T22:13:50.837Z,11.42
2022-11-09T22:17:12.629Z,11.39
2022-11-09T22:20:52.797Z,11.42
2022-11-09T22:24:14.329Z,11.40
2022-11-09T22:27:38.543Z,11.40
2022-11-09T22:31:04.023Z,11.45
2022-11-09T22:34:25.526Z,11.42
2022-11-09T22:37:49.768Z,11.42
2022-11-09T22:41:14.106Z,11.42
2022-11-09T22:44:35.691Z,11.42
2022-11-09T22:47:59.411Z,11.42
2022-11-09T22:51:23.260Z,11.36
2022-11-09T22:54:44.747Z,11.39
2022-11-09T22:58:08.982Z,11.38
2022-11-09T23:01:33.001Z,11.36
2022-11-09T23:04:56.798Z,11.38
2022-11-09T23:08:20.764Z,11.36
2022-11-09T23:11:44.741Z,11.38
2022-11-09T23:15:08.670Z,11.32
2022-11-09T23:18:49.104Z,11.36
2022-11-09T23:22:10.610Z,11.36
2022-11-09T23:25:50.821Z,11.39
2022-11-09T23:29:12.307Z,11.45
2022-11-09T23:32:33.815Z,11.45
2022-11-09T23:35:56.759Z,11.45
2022-11-09T23:39:20.627Z,11.48
2022-11-09T23:42:44.526Z,11.43
2022-11-09T23:46:08.494Z,11.43
2022-11-09T23:49:29.995Z,11.42
2022-11-09T23:52:51.756Z,11.42
2022-11-09T23:56:13.254Z,11.40
2022-11-09T23:59:34.771Z,11.40
